sensor_id;sensor_type;location;lat;lon;timestamp;pressure;altitude;pressure_sealevel;temperature;humidity
3444;BME280;1736;52.068;6.968;2023-06-22T00:02:25;101394.66;;;19.41;84.13
3444;BME280;1736;52.068;6.968;2023-06-22T00:04:52;101397.88;;;19.37;84.06
3444;BME280;1736;52.068;6.968;2023-06-22T00:07:18;101402.25;;;19.38;84.01
3444;BME280;1736;52.068;6.968;2023-06-22T00:09:45;101384.75;;;19.42;83.64
3444;BME280;1736;52.068;6.968;2023-06-22T00:12:11;101382.53;;;19.37;83.93
3444;BME280;1736;52.068;6.968;2023-06-22T00:14:39;101378.66;;;19.24;84.57
3444;BME280;1736;52.068;6.968;2023-06-22T00:17:06;101379.66;;;19.23;85.23
3444;BME280;1736;52.068;6.968;2023-06-22T00:19:32;101365.41;;;19.30;84.58
3444;BME280;1736;52.068;6.968;2023-06-22T00:22:00;101375.66;;;19.27;84.46
3444;BME280;1736;52.068;6.968;2023-06-22T00:24:28;101377.47;;;19.18;84.88
3444;BME280;1736;52.068;6.968;2023-06-22T00:26:55;101380.16;;;19.10;85.35
3444;BME280;1736;52.068;6.968;2023-06-22T00:29:21;101376.28;;;19.05;85.93
3444;BME280;1736;52.068;6.968;2023-06-22T00:31:49;101367.88;;;19.08;85.63
3444;BME280;1736;52.068;6.968;2023-06-22T00:34:16;101358.78;;;19.01;85.74
3444;BME280;1736;52.068;6.968;2023-06-22T00:36:42;101359.97;;;18.98;85.95
3444;BME280;1736;52.068;6.968;2023-06-22T00:39:09;101355.94;;;19.02;85.96
3444;BME280;1736;52.068;6.968;2023-06-22T00:41:36;101355.25;;;19.00;85.64
3444;BME280;1736;52.068;6.968;2023-06-22T00:44:02;101359.09;;;18.98;86.07
3444;BME280;1736;52.068;6.968;2023-06-22T00:46:29;101369.38;;;18.94;86.45
3444;BME280;1736;52.068;6.968;2023-06-22T00:48:57;101354.22;;;18.93;86.22
3444;BME280;1736;52.068;6.968;2023-06-22T00:51:24;101357.59;;;18.87;86.64
3444;BME280;1736;52.068;6.968;2023-06-22T00:53:51;101359.06;;;18.82;87.10
3444;BME280;1736;52.068;6.968;2023-06-22T00:56:19;101354.03;;;18.87;86.92
3444;BME280;1736;52.068;6.968;2023-06-22T00:58:50;101354.03;;;18.79;87.33
3444;BME280;1736;52.068;6.968;2023-06-22T01:01:18;101364.47;;;18.90;87.27
3444;BME280;1736;52.068;6.968;2023-06-22T01:03:48;101358.03;;;18.75;88.08
3444;BME280;1736;52.068;6.968;2023-06-22T01:06:22;101352.66;;;18.75;88.11
3444;BME280;1736;52.068;6.968;2023-06-22T01:08:59;101346.97;;;18.78;88.34
3444;BME280;1736;52.068;6.968;2023-06-22T01:11:31;101348.13;;;18.67;89.05
3444;BME280;1736;52.068;6.968;2023-06-22T01:14:03;101340.72;;;18.61;89.71
3444;BME280;1736;52.068;6.968;2023-06-22T01:16:34;101346.75;;;18.55;90.36
3444;BME280;1736;52.068;6.968;2023-06-22T01:19:09;101347.91;;;18.53;90.92
3444;BME280;1736;52.068;6.968;2023-06-22T01:21:45;101337.66;;;18.56;90.67
3444;BME280;1736;52.068;6.968;2023-06-22T01:24:18;101341.69;;;18.52;91.14
3444;BME280;1736;52.068;6.968;2023-06-22T01:26:54;101342.03;;;18.49;91.65
3444;BME280;1736;52.068;6.968;2023-06-22T01:29:26;101343.00;;;18.48;92.17
3444;BME280;1736;52.068;6.968;2023-06-22T01:31:54;101345.69;;;18.48;92.08
3444;BME280;1736;52.068;6.968;2023-06-22T01:34:23;101345.69;;;18.48;92.33
3444;BME280;1736;52.068;6.968;2023-06-22T01:36:51;101338.69;;;18.63;91.93
3444;BME280;1736;52.068;6.968;2023-06-22T01:39:18;101337.00;;;18.54;92.12
3444;BME280;1736;52.068;6.968;2023-06-22T01:41:45;101346.56;;;18.49;92.29
3444;BME280;1736;52.068;6.968;2023-06-22T01:44:12;101346.38;;;18.42;92.87
3444;BME280;1736;52.068;6.968;2023-06-22T01:46:41;101350.06;;;18.41;93.49
3444;BME280;1736;52.068;6.968;2023-06-22T01:49:08;101341.84;;;18.43;93.17
3444;BME280;1736;52.068;6.968;2023-06-22T01:51:35;101343.00;;;18.48;92.96
3444;BME280;1736;52.068;6.968;2023-06-22T01:54:01;101344.22;;;18.54;93.51
3444;BME280;1736;52.068;6.968;2023-06-22T01:56:28;101344.34;;;18.44;93.61
3444;BME280;1736;52.068;6.968;2023-06-22T01:59:00;101345.31;;;18.35;94.62
3444;BME280;1736;52.068;6.968;2023-06-22T02:01:33;101348.00;;;18.35;94.92
3444;BME280;1736;52.068;6.968;2023-06-22T02:04:06;101348.00;;;18.35;95.43
3444;BME280;1736;52.068;6.968;2023-06-22T02:06:37;101342.63;;;18.35;95.27
3444;BME280;1736;52.068;6.968;2023-06-22T02:09:07;101340.69;;;18.45;95.25
3444;BME280;1736;52.068;6.968;2023-06-22T02:11:36;101339.63;;;18.38;94.94
3444;BME280;1736;52.068;6.968;2023-06-22T02:14:04;101335.44;;;18.36;95.72
3444;BME280;1736;52.068;6.968;2023-06-22T02:16:32;101339.47;;;18.40;95.40
3444;BME280;1736;52.068;6.968;2023-06-22T02:19:00;101340.69;;;18.45;94.96
3444;BME280;1736;52.068;6.968;2023-06-22T02:21:30;101339.94;;;18.35;95.55
3444;BME280;1736;52.068;6.968;2023-06-22T02:23:57;101339.63;;;18.38;95.19
3444;BME280;1736;52.068;6.968;2023-06-22T02:26:25;101339.63;;;18.38;95.49
3444;BME280;1736;52.068;6.968;2023-06-22T02:28:52;101334.44;;;18.45;95.03
3444;BME280;1736;52.068;6.968;2023-06-22T02:31:19;101334.94;;;18.40;95.25
3444;BME280;1736;52.068;6.968;2023-06-22T02:33:45;101330.06;;;18.36;95.93
3444;BME280;1736;52.068;6.968;2023-06-22T02:36:13;101327.91;;;18.47;95.05
3444;BME280;1736;52.068;6.968;2023-06-22T02:38:42;101331.88;;;18.35;95.58
3444;BME280;1736;52.068;6.968;2023-06-22T02:41:13;101329.84;;;18.29;96.55
3444;BME280;1736;52.068;6.968;2023-06-22T02:43:43;101326.81;;;18.24;97.20
3444;BME280;1736;52.068;6.968;2023-06-22T02:46:10;101327.13;;;18.21;97.51
3444;BME280;1736;52.068;6.968;2023-06-22T02:48:36;101327.78;;;18.23;97.34
3444;BME280;1736;52.068;6.968;2023-06-22T02:51:03;101334.00;;;18.24;97.07
3444;BME280;1736;52.068;6.968;2023-06-22T02:53:29;101330.66;;;18.30;96.58
3444;BME280;1736;52.068;6.968;2023-06-22T02:55:58;101331.94;;;18.18;97.32
3444;BME280;1736;52.068;6.968;2023-06-22T02:58:26;101325.75;;;18.17;97.50
3444;BME280;1736;52.068;6.968;2023-06-22T03:00:53;101333.66;;;18.19;97.50
3444;BME280;1736;52.068;6.968;2023-06-22T03:03:19;101326.75;;;18.16;97.80
3444;BME280;1736;52.068;6.968;2023-06-22T03:05:46;101330.81;;;18.20;97.58
3444;BME280;1736;52.068;6.968;2023-06-22T03:08:12;101327.75;;;18.15;97.64
3444;BME280;1736;52.068;6.968;2023-06-22T03:10:39;101323.56;;;18.21;97.56
3444;BME280;1736;52.068;6.968;2023-06-22T03:13:07;101326.44;;;18.27;97.18
3444;BME280;1736;52.068;6.968;2023-06-22T03:15:34;101320.91;;;18.29;96.63
3444;BME280;1736;52.068;6.968;2023-06-22T03:18:00;101323.59;;;18.29;96.31
3444;BME280;1736;52.068;6.968;2023-06-22T03:20:27;101328.09;;;18.12;97.17
3444;BME280;1736;52.068;6.968;2023-06-22T03:22:58;101317.16;;;18.14;97.68
3444;BME280;1736;52.068;6.968;2023-06-22T03:25:25;101321.34;;;18.08;97.98
3444;BME280;1736;52.068;6.968;2023-06-22T03:27:51;101315.59;;;18.03;98.23
3444;BME280;1736;52.068;6.968;2023-06-22T03:30:19;101317.81;;;18.08;98.51
3444;BME280;1736;52.068;6.968;2023-06-22T03:32:46;101318.47;;;18.10;97.85
3444;BME280;1736;52.068;6.968;2023-06-22T03:35:13;101321.00;;;18.11;97.46
3444;BME280;1736;52.068;6.968;2023-06-22T03:37:39;101323.66;;;18.03;97.77
3444;BME280;1736;52.068;6.968;2023-06-22T03:40:07;101315.25;;;17.98;98.42
3444;BME280;1736;52.068;6.968;2023-06-22T03:42:34;101325.59;;;18.19;98.15
3444;BME280;1736;52.068;6.968;2023-06-22T03:45:01;101329.97;;;18.20;96.71
3444;BME280;1736;52.068;6.968;2023-06-22T03:47:30;101316.31;;;18.05;97.21
3444;BME280;1736;52.068;6.968;2023-06-22T03:49:56;101323.66;;;18.03;98.17
3444;BME280;1736;52.068;6.968;2023-06-22T03:52:23;101317.66;;;18.09;97.43
3444;BME280;1736;52.068;6.968;2023-06-22T03:54:50;101311.59;;;18.07;97.63
3444;BME280;1736;52.068;6.968;2023-06-22T03:57:17;101303.91;;;18.12;97.06
3444;BME280;1736;52.068;6.968;2023-06-22T03:59:43;101304.25;;;18.17;96.22
3444;BME280;1736;52.068;6.968;2023-06-22T04:02:10;101302.59;;;18.16;96.03
3444;BME280;1736;52.068;6.968;2023-06-22T04:04:38;101300.88;;;18.15;96.28
3444;BME280;1736;52.068;6.968;2023-06-22T04:07:05;101305.63;;;18.21;96.21
3444;BME280;1736;52.068;6.968;2023-06-22T04:09:32;101312.00;;;18.28;95.95
3444;BME280;1736;52.068;6.968;2023-06-22T04:11:58;101303.34;;;18.34;94.91
3444;BME280;1736;52.068;6.968;2023-06-22T04:14:25;101300.50;;;18.36;94.46
3444;BME280;1736;52.068;6.968;2023-06-22T04:16:51;101298.63;;;18.36;94.37
3444;BME280;1736;52.068;6.968;2023-06-22T04:19:18;101306.91;;;18.43;94.21
3444;BME280;1736;52.068;6.968;2023-06-22T04:21:46;101305.41;;;18.56;93.39
3444;BME280;1736;52.068;6.968;2023-06-22T04:24:13;101303.75;;;18.63;93.17
3444;BME280;1736;52.068;6.968;2023-06-22T04:26:40;101296.03;;;18.68;91.93
3444;BME280;1736;52.068;6.968;2023-06-22T04:29:07;101298.41;;;18.79;91.12
3444;BME280;1736;52.068;6.968;2023-06-22T04:31:34;101298.41;;;18.87;90.73
3444;BME280;1736;52.068;6.968;2023-06-22T04:34:02;101299.44;;;19.02;89.99
3444;BME280;1736;52.068;6.968;2023-06-22T04:36:33;101305.47;;;19.04;89.69
3444;BME280;1736;52.068;6.968;2023-06-22T04:39:04;101301.78;;;18.97;88.98
3444;BME280;1736;52.068;6.968;2023-06-22T04:41:32;101295.25;;;19.16;88.67
3444;BME280;1736;52.068;6.968;2023-06-22T04:44:08;101293.91;;;19.20;88.10
3444;BME280;1736;52.068;6.968;2023-06-22T04:46:35;101286.34;;;19.31;87.46
3444;BME280;1736;52.068;6.968;2023-06-22T04:49:06;101300.47;;;19.33;87.66
3444;BME280;1736;52.068;6.968;2023-06-22T04:51:39;101292.03;;;19.44;87.24
3444;BME280;1736;52.068;6.968;2023-06-22T04:54:08;101293.38;;;19.56;86.57
3444;BME280;1736;52.068;6.968;2023-06-22T04:56:35;101293.38;;;19.56;85.96
3444;BME280;1736;52.068;6.968;2023-06-22T04:59:02;101291.38;;;19.50;85.60
3444;BME280;1736;52.068;6.968;2023-06-22T05:01:29;101293.19;;;19.58;85.58
3444;BME280;1736;52.068;6.968;2023-06-22T05:03:57;101293.41;;;19.32;85.72
3444;BME280;1736;52.068;6.968;2023-06-22T05:06:26;101297.09;;;19.47;85.26
3444;BME280;1736;52.068;6.968;2023-06-22T05:08:54;101286.16;;;19.49;85.14
3444;BME280;1736;52.068;6.968;2023-06-22T05:11:24;101289.00;;;19.55;85.36
3444;BME280;1736;52.068;6.968;2023-06-22T05:13:50;101284.56;;;19.70;84.75
3444;BME280;1736;52.068;6.968;2023-06-22T05:16:17;101294.59;;;20.01;83.64
3444;BME280;1736;52.068;6.968;2023-06-22T05:18:50;101297.25;;;20.17;82.39
3444;BME280;1736;52.068;6.968;2023-06-22T05:21:17;101301.41;;;20.27;80.99
3444;BME280;1736;52.068;6.968;2023-06-22T05:23:44;101305.69;;;20.44;81.10
3444;BME280;1736;52.068;6.968;2023-06-22T05:26:10;101297.81;;;20.35;80.35
3444;BME280;1736;52.068;6.968;2023-06-22T05:28:38;101294.66;;;20.62;79.51
3444;BME280;1736;52.068;6.968;2023-06-22T05:31:05;101297.53;;;20.83;78.91
3444;BME280;1736;52.068;6.968;2023-06-22T05:33:31;101305.91;;;20.96;78.37
3444;BME280;1736;52.068;6.968;2023-06-22T05:35:58;101300.97;;;21.22;77.33
3444;BME280;1736;52.068;6.968;2023-06-22T05:38:25;101308.66;;;21.10;76.31
3444;BME280;1736;52.068;6.968;2023-06-22T05:40:51;101316.25;;;21.29;75.19
3444;BME280;1736;52.068;6.968;2023-06-22T05:43:18;101311.09;;;21.57;74.51
3444;BME280;1736;52.068;6.968;2023-06-22T05:45:45;101305.81;;;21.78;74.44
3444;BME280;1736;52.068;6.968;2023-06-22T05:48:12;101301.91;;;21.80;73.49
3444;BME280;1736;52.068;6.968;2023-06-22T05:50:38;101299.25;;;21.58;73.25
3444;BME280;1736;52.068;6.968;2023-06-22T05:53:05;101295.16;;;21.62;74.31
3444;BME280;1736;52.068;6.968;2023-06-22T05:55:32;101301.41;;;21.62;73.56
3444;BME280;1736;52.068;6.968;2023-06-22T05:57:58;101291.50;;;21.92;72.29
3444;BME280;1736;52.068;6.968;2023-06-22T06:00:25;101304.16;;;21.91;72.59
3444;BME280;1736;52.068;6.968;2023-06-22T06:02:53;101299.97;;;22.03;71.70
3444;BME280;1736;52.068;6.968;2023-06-22T06:05:19;101301.44;;;22.20;71.15
3444;BME280;1736;52.068;6.968;2023-06-22T06:07:46;101308.41;;;22.44;70.92
3444;BME280;1736;52.068;6.968;2023-06-22T06:10:12;101304.28;;;22.62;70.10
3444;BME280;1736;52.068;6.968;2023-06-22T06:12:39;101312.47;;;22.69;69.68
3444;BME280;1736;52.068;6.968;2023-06-22T06:15:06;101312.56;;;22.96;69.52
3444;BME280;1736;52.068;6.968;2023-06-22T06:17:33;101314.41;;;22.96;68.84
3444;BME280;1736;52.068;6.968;2023-06-22T06:20:01;101310.59;;;22.69;69.41
3444;BME280;1736;52.068;6.968;2023-06-22T06:22:30;101311.63;;;22.68;69.16
3444;BME280;1736;52.068;6.968;2023-06-22T06:24:56;101318.50;;;22.50;69.74
3444;BME280;1736;52.068;6.968;2023-06-22T06:27:23;101319.41;;;22.42;69.66
3444;BME280;1736;52.068;6.968;2023-06-22T06:29:54;101310.63;;;22.55;70.13
3444;BME280;1736;52.068;6.968;2023-06-22T06:32:21;101308.13;;;22.39;70.64
3444;BME280;1736;52.068;6.968;2023-06-22T06:34:47;101303.97;;;22.22;71.34
3444;BME280;1736;52.068;6.968;2023-06-22T06:37:16;101309.09;;;22.17;71.07
3444;BME280;1736;52.068;6.968;2023-06-22T06:39:43;101303.44;;;21.97;71.81
3444;BME280;1736;52.068;6.968;2023-06-22T06:42:10;101314.06;;;21.99;72.32
3444;BME280;1736;52.068;6.968;2023-06-22T06:44:37;101313.03;;;22.00;72.83
3444;BME280;1736;52.068;6.968;2023-06-22T06:47:03;101307.72;;;21.92;72.33
3444;BME280;1736;52.068;6.968;2023-06-22T06:49:30;101303.25;;;21.99;72.85
3444;BME280;1736;52.068;6.968;2023-06-22T06:51:57;101320.00;;;21.94;71.86
3444;BME280;1736;52.068;6.968;2023-06-22T06:54:25;101308.34;;;22.08;71.78
3444;BME280;1736;52.068;6.968;2023-06-22T06:56:52;101305.84;;;22.07;71.61
3444;BME280;1736;52.068;6.968;2023-06-22T06:59:19;101307.25;;;22.17;70.94
3444;BME280;1736;52.068;6.968;2023-06-22T07:01:45;101298.56;;;22.22;70.54
3444;BME280;1736;52.068;6.968;2023-06-22T07:04:14;101299.69;;;22.13;70.99
3444;BME280;1736;52.068;6.968;2023-06-22T07:06:40;101295.03;;;21.92;71.46
3444;BME280;1736;52.068;6.968;2023-06-22T07:09:08;101287.75;;;22.07;70.74
3444;BME280;1736;52.068;6.968;2023-06-22T07:11:36;101285.16;;;21.99;71.23
3444;BME280;1736;52.068;6.968;2023-06-22T07:14:02;101283.19;;;22.22;71.35
3444;BME280;1736;52.068;6.968;2023-06-22T07:16:29;101293.53;;;22.33;70.88
3444;BME280;1736;52.068;6.968;2023-06-22T07:18:56;101287.69;;;22.51;70.00
3444;BME280;1736;52.068;6.968;2023-06-22T07:21:23;101287.56;;;22.94;69.24
3444;BME280;1736;52.068;6.968;2023-06-22T07:23:49;101279.75;;;23.27;67.90
3444;BME280;1736;52.068;6.968;2023-06-22T07:26:16;101273.09;;;23.29;67.31
3444;BME280;1736;52.068;6.968;2023-06-22T07:28:43;101281.38;;;23.49;66.76
3444;BME280;1736;52.068;6.968;2023-06-22T07:31:10;101269.56;;;23.29;67.07
3444;BME280;1736;52.068;6.968;2023-06-22T07:33:36;101264.41;;;23.34;67.18
3444;BME280;1736;52.068;6.968;2023-06-22T07:36:03;101275.72;;;23.44;66.89
3444;BME280;1736;52.068;6.968;2023-06-22T07:38:33;101273.06;;;23.23;66.95
3444;BME280;1736;52.068;6.968;2023-06-22T07:40:59;101276.00;;;23.28;67.21
3444;BME280;1736;52.068;6.968;2023-06-22T07:43:26;101273.50;;;23.54;67.11
3444;BME280;1736;52.068;6.968;2023-06-22T07:45:54;101284.34;;;23.54;65.68
3444;BME280;1736;52.068;6.968;2023-06-22T07:48:21;101276.31;;;23.67;66.02
3444;BME280;1736;52.068;6.968;2023-06-22T07:50:48;101278.94;;;23.88;65.39
3444;BME280;1736;52.068;6.968;2023-06-22T07:53:14;101276.81;;;23.83;65.51
3444;BME280;1736;52.068;6.968;2023-06-22T07:55:41;101286.19;;;23.81;65.15
3444;BME280;1736;52.068;6.968;2023-06-22T07:58:07;101280.13;;;23.79;65.42
3444;BME280;1736;52.068;6.968;2023-06-22T08:00:34;101282.19;;;23.77;65.24
3444;BME280;1736;52.068;6.968;2023-06-22T08:03:02;101282.28;;;23.90;65.21
3444;BME280;1736;52.068;6.968;2023-06-22T08:05:30;101271.84;;;23.87;65.66
3444;BME280;1736;52.068;6.968;2023-06-22T08:07:57;101274.75;;;23.85;65.33
3444;BME280;1736;52.068;6.968;2023-06-22T08:10:24;101266.81;;;23.84;65.59
3444;BME280;1736;52.068;6.968;2023-06-22T08:12:51;101261.38;;;23.84;66.02
3444;BME280;1736;52.068;6.968;2023-06-22T08:15:18;101266.13;;;24.03;65.21
3444;BME280;1736;52.068;6.968;2023-06-22T08:17:44;101259.63;;;23.97;65.34
3444;BME280;1736;52.068;6.968;2023-06-22T08:20:13;101270.72;;;24.09;64.65
3444;BME280;1736;52.068;6.968;2023-06-22T08:22:40;101257.59;;;23.78;65.68
3444;BME280;1736;52.068;6.968;2023-06-22T08:25:08;101253.13;;;23.92;65.31
3444;BME280;1736;52.068;6.968;2023-06-22T08:27:35;101253.84;;;24.07;65.07
3444;BME280;1736;52.068;6.968;2023-06-22T08:30:02;101251.75;;;23.75;66.87
3444;BME280;1736;52.068;6.968;2023-06-22T08:32:29;101250.91;;;24.02;65.86
3444;BME280;1736;52.068;6.968;2023-06-22T08:34:56;101254.19;;;23.91;66.14
3444;BME280;1736;52.068;6.968;2023-06-22T08:37:24;101247.94;;;23.63;67.33
3444;BME280;1736;52.068;6.968;2023-06-22T08:39:56;101240.84;;;23.62;67.55
3444;BME280;1736;52.068;6.968;2023-06-22T08:42:22;101241.06;;;24.01;65.83
3444;BME280;1736;52.068;6.968;2023-06-22T08:44:50;101237.81;;;24.18;65.30
3444;BME280;1736;52.068;6.968;2023-06-22T08:47:16;101237.94;;;24.51;64.29
3444;BME280;1736;52.068;6.968;2023-06-22T08:49:43;101228.78;;;24.65;63.73
3444;BME280;1736;52.068;6.968;2023-06-22T08:52:09;101217.94;;;24.85;62.25
3444;BME280;1736;52.068;6.968;2023-06-22T08:54:37;101203.97;;;24.94;62.86
3444;BME280;1736;52.068;6.968;2023-06-22T08:57:04;101203.56;;;24.97;62.75
3444;BME280;1736;52.068;6.968;2023-06-22T08:59:31;101203.75;;;24.76;62.51
3444;BME280;1736;52.068;6.968;2023-06-22T09:01:58;101202.09;;;24.88;62.25
3444;BME280;1736;52.068;6.968;2023-06-22T09:04:24;101212.31;;;24.86;62.25
3444;BME280;1736;52.068;6.968;2023-06-22T09:06:51;101205.00;;;25.00;62.07
3444;BME280;1736;52.068;6.968;2023-06-22T09:09:18;101204.41;;;25.30;61.11
3444;BME280;1736;52.068;6.968;2023-06-22T09:11:46;101197.06;;;25.37;61.77
3444;BME280;1736;52.068;6.968;2023-06-22T09:14:13;101205.41;;;25.42;60.89
3444;BME280;1736;52.068;6.968;2023-06-22T09:16:39;101203.34;;;25.31;60.32
3444;BME280;1736;52.068;6.968;2023-06-22T09:19:06;101198.31;;;25.41;60.26
3444;BME280;1736;52.068;6.968;2023-06-22T09:21:32;101205.44;;;25.36;60.44
3444;BME280;1736;52.068;6.968;2023-06-22T09:23:59;101194.13;;;25.13;60.32
3444;BME280;1736;52.068;6.968;2023-06-22T09:26:25;101185.38;;;25.17;60.78
3444;BME280;1736;52.068;6.968;2023-06-22T09:28:53;101191.03;;;25.03;61.14
3444;BME280;1736;52.068;6.968;2023-06-22T09:31:20;101182.03;;;24.96;61.01
3444;BME280;1736;52.068;6.968;2023-06-22T09:33:50;101186.63;;;24.95;60.73
3444;BME280;1736;52.068;6.968;2023-06-22T09:36:17;101186.63;;;25.02;60.79
3444;BME280;1736;52.068;6.968;2023-06-22T09:38:43;101182.88;;;25.09;60.43
3444;BME280;1736;52.068;6.968;2023-06-22T09:41:10;101181.97;;;25.54;58.55
3444;BME280;1736;52.068;6.968;2023-06-22T09:43:36;101191.78;;;25.55;58.22
3444;BME280;1736;52.068;6.968;2023-06-22T09:46:04;101191.22;;;25.34;59.23
3444;BME280;1736;52.068;6.968;2023-06-22T09:48:32;101192.91;;;25.02;59.57
3444;BME280;1736;52.068;6.968;2023-06-22T09:50:58;101188.94;;;24.92;60.72
3444;BME280;1736;52.068;6.968;2023-06-22T09:53:25;101189.78;;;24.86;61.22
3444;BME280;1736;52.068;6.968;2023-06-22T09:55:51;101187.88;;;25.06;61.33
3444;BME280;1736;52.068;6.968;2023-06-22T09:58:18;101179.94;;;25.30;60.74
3444;BME280;1736;52.068;6.968;2023-06-22T10:00:44;101176.59;;;25.09;61.03
3444;BME280;1736;52.068;6.968;2023-06-22T10:03:12;101169.06;;;25.37;60.37
3444;BME280;1736;52.068;6.968;2023-06-22T10:05:38;101175.31;;;25.18;60.32
3444;BME280;1736;52.068;6.968;2023-06-22T10:08:05;101182.22;;;25.14;60.69
3444;BME280;1736;52.068;6.968;2023-06-22T10:10:33;101168.66;;;24.88;61.61
3444;BME280;1736;52.068;6.968;2023-06-22T10:13:07;101161.16;;;24.96;61.39
3444;BME280;1736;52.068;6.968;2023-06-22T10:15:34;101168.25;;;24.97;61.47
3444;BME280;1736;52.068;6.968;2023-06-22T10:18:01;101161.97;;;24.90;61.56
3444;BME280;1736;52.068;6.968;2023-06-22T10:20:28;101176.59;;;24.96;61.66
3444;BME280;1736;52.068;6.968;2023-06-22T10:22:55;101155.91;;;24.75;61.96
3444;BME280;1736;52.068;6.968;2023-06-22T10:25:22;101170.75;;;24.99;61.33
3444;BME280;1736;52.068;6.968;2023-06-22T10:27:48;101179.13;;;24.84;61.36
3444;BME280;1736;52.068;6.968;2023-06-22T10:30:15;101175.72;;;24.56;63.01
3444;BME280;1736;52.068;6.968;2023-06-22T10:32:42;101165.31;;;24.66;62.70
3444;BME280;1736;52.068;6.968;2023-06-22T10:35:09;101169.31;;;24.90;62.80
3444;BME280;1736;52.068;6.968;2023-06-22T10:37:40;101163.84;;;25.22;61.80
3444;BME280;1736;52.068;6.968;2023-06-22T10:40:09;101163.03;;;25.02;61.99
3444;BME280;1736;52.068;6.968;2023-06-22T10:42:35;101158.03;;;24.73;63.08
3444;BME280;1736;52.068;6.968;2023-06-22T10:45:02;101164.06;;;24.62;63.90
3444;BME280;1736;52.068;6.968;2023-06-22T10:47:29;101160.69;;;24.47;64.18
3444;BME280;1736;52.068;6.968;2023-06-22T10:49:55;101165.69;;;24.57;63.65
3444;BME280;1736;52.068;6.968;2023-06-22T10:52:22;101157.81;;;24.75;63.43
3444;BME280;1736;52.068;6.968;2023-06-22T10:54:49;101151.94;;;24.71;63.98
3444;BME280;1736;52.068;6.968;2023-06-22T10:57:17;101146.50;;;24.52;63.78
3444;BME280;1736;52.068;6.968;2023-06-22T10:59:44;101161.09;;;24.51;65.02
3444;BME280;1736;52.068;6.968;2023-06-22T11:02:10;101152.75;;;24.39;64.76
3444;BME280;1736;52.068;6.968;2023-06-22T11:04:37;101146.69;;;24.57;64.52
3444;BME280;1736;52.068;6.968;2023-06-22T11:07:05;101140.22;;;24.38;65.09
3444;BME280;1736;52.068;6.968;2023-06-22T11:09:31;101130.00;;;24.53;65.09
3444;BME280;1736;52.068;6.968;2023-06-22T11:11:59;101130.19;;;24.32;65.83
3444;BME280;1736;52.068;6.968;2023-06-22T11:14:26;101121.66;;;24.48;65.38
3444;BME280;1736;52.068;6.968;2023-06-22T11:16:52;101114.97;;;24.57;64.77
3444;BME280;1736;52.068;6.968;2023-06-22T11:19:19;101117.91;;;24.43;65.10
3444;BME280;1736;52.068;6.968;2023-06-22T11:21:45;101106.19;;;24.42;64.85
3444;BME280;1736;52.068;6.968;2023-06-22T11:24:12;101094.94;;;24.32;65.46
3444;BME280;1736;52.068;6.968;2023-06-22T11:26:38;101097.28;;;24.61;65.10
3444;BME280;1736;52.068;6.968;2023-06-22T11:29:06;101099.78;;;24.76;64.71
3444;BME280;1736;52.068;6.968;2023-06-22T11:31:33;101101.00;;;24.54;64.88
3444;BME280;1736;52.068;6.968;2023-06-22T11:34:00;101099.31;;;24.46;65.62
3444;BME280;1736;52.068;6.968;2023-06-22T11:36:28;101097.66;;;24.45;65.58
3444;BME280;1736;52.068;6.968;2023-06-22T11:38:58;101090.56;;;24.44;65.71
3444;BME280;1736;52.068;6.968;2023-06-22T11:41:24;101103.66;;;24.14;66.66
3444;BME280;1736;52.068;6.968;2023-06-22T11:43:51;101099.69;;;23.97;67.39
3444;BME280;1736;52.068;6.968;2023-06-22T11:46:19;101084.69;;;24.14;67.33
3444;BME280;1736;52.068;6.968;2023-06-22T11:48:45;101088.84;;;24.04;67.39
3444;BME280;1736;52.068;6.968;2023-06-22T11:51:12;101090.09;;;24.14;66.52
3444;BME280;1736;52.068;6.968;2023-06-22T11:53:38;101090.28;;;24.00;66.94
3444;BME280;1736;52.068;6.968;2023-06-22T11:56:05;101088.81;;;23.91;67.27
3444;BME280;1736;52.068;6.968;2023-06-22T11:58:32;101088.31;;;23.81;67.55
3444;BME280;1736;52.068;6.968;2023-06-22T12:00:58;101087.94;;;23.84;67.72
3444;BME280;1736;52.068;6.968;2023-06-22T12:03:26;101085.00;;;23.79;67.81
3444;BME280;1736;52.068;6.968;2023-06-22T12:05:52;101083.72;;;23.75;68.25
3444;BME280;1736;52.068;6.968;2023-06-22T12:08:19;101076.19;;;23.70;68.74
3444;BME280;1736;52.068;6.968;2023-06-22T12:10:45;101084.13;;;23.72;68.71
3444;BME280;1736;52.068;6.968;2023-06-22T12:13:12;101090.22;;;23.87;68.32
3444;BME280;1736;52.068;6.968;2023-06-22T12:15:38;101091.69;;;23.83;68.61
3444;BME280;1736;52.068;6.968;2023-06-22T12:18:05;101080.84;;;23.89;67.98
3444;BME280;1736;52.068;6.968;2023-06-22T12:20:32;101089.97;;;23.75;68.00
3444;BME280;1736;52.068;6.968;2023-06-22T12:22:59;101085.44;;;23.89;67.90
3444;BME280;1736;52.068;6.968;2023-06-22T12:25:26;101077.09;;;23.90;67.31
3444;BME280;1736;52.068;6.968;2023-06-22T12:27:52;101081.47;;;23.85;67.77
3444;BME280;1736;52.068;6.968;2023-06-22T12:30:19;101088.75;;;23.78;68.09
3444;BME280;1736;52.068;6.968;2023-06-22T12:32:45;101084.13;;;23.72;68.67
3444;BME280;1736;52.068;6.968;2023-06-22T12:35:12;101089.31;;;23.60;69.80
3444;BME280;1736;52.068;6.968;2023-06-22T12:37:41;101090.13;;;23.61;69.87
3444;BME280;1736;52.068;6.968;2023-06-22T12:40:09;101085.88;;;23.05;75.12
3444;BME280;1736;52.068;6.968;2023-06-22T12:42:36;101072.38;;;22.29;81.85
3444;BME280;1736;52.068;6.968;2023-06-22T12:45:03;101068.94;;;21.78;86.51
3444;BME280;1736;52.068;6.968;2023-06-22T12:47:29;101068.81;;;21.51;92.16
3444;BME280;1736;52.068;6.968;2023-06-22T12:49:56;101067.53;;;21.32;93.22
3444;BME280;1736;52.068;6.968;2023-06-22T12:52:23;101076.75;;;21.09;98.23
3444;BME280;1736;52.068;6.968;2023-06-22T12:54:51;101070.97;;;21.12;99.71
3444;BME280;1736;52.068;6.968;2023-06-22T12:57:19;101069.84;;;20.92;100.00
3444;BME280;1736;52.068;6.968;2023-06-22T12:59:46;101072.06;;;20.74;100.00
3444;BME280;1736;52.068;6.968;2023-06-22T13:02:12;101068.41;;;20.67;100.00
3444;BME280;1736;52.068;6.968;2023-06-22T13:04:38;101062.72;;;20.62;100.00
3444;BME280;1736;52.068;6.968;2023-06-22T13:07:05;101061.63;;;20.71;100.00
3444;BME280;1736;52.068;6.968;2023-06-22T13:09:32;101053.53;;;20.71;100.00
3444;BME280;1736;52.068;6.968;2023-06-22T13:12:01;101039.97;;;20.79;100.00